Terminal Aerodrome Forecast
Issued by NWS

Home | Current Version | Previous Version | Text Only | Print | Product List | Glossary On
Versions: 1 2 3 4 5 6 7 8 9 10 11 12 13 14 15 16
000
FTUS43 KGRB 040113 AAA
TAFATW
TAF AMD
KATW 040113Z 0401/0424 32012G20KT P6SM VCTS BKN070CB
      TEMPO 0401/0404 3SM -RA BKN040
     FM040400 32010KT P6SM VCSH BKN035 BKN100
     FM040600 35011G15KT P6SM SCT025 BKN040
     FM041300 34016G26KT P6SM BKN035=

USA.gov is the U.S. government's official web portal to all federal, state and local government web resources and services.